19°C Temp
13°C Dewpoint
68% Humidity
Temperature
5 KM/H
3 MPH
3 KTS
80°
Due East

Wind Speed
Misty
Conditions
Pressure 1014.92 (hPa) - 29.97 (in)
Visibility 2.5 (mi) - 4.0 (km)

Current Conditions
LIMP
Location 40(km)
Metar :LIMP 221550Z 08003KT 4000 BR SCT030 19/13 Q1015
Fri 22nd October 16:50 pm

Airport
  Metar Aviation API Data Provided by https://www.checkwx.com/ PHP scripts by weather34.com ©2021